sensor_id;sensor_type;location;lat;lon;timestamp;temperature;humidity
1175;DHT22;576;48.418;10.074;2023-01-19T00:00:54;21.30;56.10
1175;DHT22;576;48.418;10.074;2023-01-19T00:03:22;21.30;56.10
1175;DHT22;576;48.418;10.074;2023-01-19T00:05:50;21.30;56.00
1175;DHT22;576;48.418;10.074;2023-01-19T00:08:19;21.30;56.00
1175;DHT22;576;48.418;10.074;2023-01-19T00:10:49;21.30;56.00
1175;DHT22;576;48.418;10.074;2023-01-19T00:13:17;21.30;56.00
1175;DHT22;576;48.418;10.074;2023-01-19T00:15:47;21.30;55.90
1175;DHT22;576;48.418;10.074;2023-01-19T00:18:15;21.30;55.90
1175;DHT22;576;48.418;10.074;2023-01-19T00:20:45;21.30;55.90
1175;DHT22;576;48.418;10.074;2023-01-19T00:23:14;21.30;55.80
1175;DHT22;576;48.418;10.074;2023-01-19T00:25:42;21.30;55.80
1175;DHT22;576;48.418;10.074;2023-01-19T00:28:12;21.30;55.70
1175;DHT22;576;48.418;10.074;2023-01-19T00:30:41;21.30;55.70
1175;DHT22;576;48.418;10.074;2023-01-19T00:33:11;21.30;55.60
1175;DHT22;576;48.418;10.074;2023-01-19T00:35:41;21.30;55.60
1175;DHT22;576;48.418;10.074;2023-01-19T00:38:10;21.30;55.60
1175;DHT22;576;48.418;10.074;2023-01-19T00:40:38;21.30;55.60
1175;DHT22;576;48.418;10.074;2023-01-19T00:43:07;21.20;55.60
1175;DHT22;576;48.418;10.074;2023-01-19T00:45:35;21.20;55.70
1175;DHT22;576;48.418;10.074;2023-01-19T00:48:03;21.20;55.60
1175;DHT22;576;48.418;10.074;2023-01-19T00:50:33;21.20;55.60
1175;DHT22;576;48.418;10.074;2023-01-19T00:53:02;21.20;55.70
1175;DHT22;576;48.418;10.074;2023-01-19T00:55:30;21.20;55.70
1175;DHT22;576;48.418;10.074;2023-01-19T00:57:59;21.20;55.70
1175;DHT22;576;48.418;10.074;2023-01-19T01:00:28;21.20;55.70
1175;DHT22;576;48.418;10.074;2023-01-19T01:02:57;21.20;55.80
1175;DHT22;576;48.418;10.074;2023-01-19T01:05:26;21.20;55.70
1175;DHT22;576;48.418;10.074;2023-01-19T01:07:55;21.20;55.70
1175;DHT22;576;48.418;10.074;2023-01-19T01:10:26;21.20;55.70
1175;DHT22;576;48.418;10.074;2023-01-19T01:12:54;21.20;55.70
1175;DHT22;576;48.418;10.074;2023-01-19T01:15:25;21.20;55.70
1175;DHT22;576;48.418;10.074;2023-01-19T01:17:54;21.20;55.70
1175;DHT22;576;48.418;10.074;2023-01-19T01:20:24;21.20;55.70
1175;DHT22;576;48.418;10.074;2023-01-19T01:22:55;21.20;55.70
1175;DHT22;576;48.418;10.074;2023-01-19T01:25:26;21.20;55.70
1175;DHT22;576;48.418;10.074;2023-01-19T01:27:57;21.20;55.60
1175;DHT22;576;48.418;10.074;2023-01-19T01:30:25;21.20;55.60
1175;DHT22;576;48.418;10.074;2023-01-19T01:32:53;21.20;55.60
1175;DHT22;576;48.418;10.074;2023-01-19T01:35:22;21.20;55.70
1175;DHT22;576;48.418;10.074;2023-01-19T01:37:50;21.20;55.70
1175;DHT22;576;48.418;10.074;2023-01-19T01:40:19;21.20;55.70
1175;DHT22;576;48.418;10.074;2023-01-19T01:42:47;21.20;55.70
1175;DHT22;576;48.418;10.074;2023-01-19T01:45:30;21.20;55.70
1175;DHT22;576;48.418;10.074;2023-01-19T01:48:03;21.20;55.70
1175;DHT22;576;48.418;10.074;2023-01-19T01:50:35;21.20;55.60
1175;DHT22;576;48.418;10.074;2023-01-19T01:53:07;21.20;55.60
1175;DHT22;576;48.418;10.074;2023-01-19T01:55:41;21.20;55.50
1175;DHT22;576;48.418;10.074;2023-01-19T01:58:11;21.20;55.50
1175;DHT22;576;48.418;10.074;2023-01-19T02:00:40;21.20;55.50
1175;DHT22;576;48.418;10.074;2023-01-19T02:03:27;21.20;55.40
1175;DHT22;576;48.418;10.074;2023-01-19T02:05:59;21.20;55.40
1175;DHT22;576;48.418;10.074;2023-01-19T02:08:33;21.20;55.40
1175;DHT22;576;48.418;10.074;2023-01-19T02:11:21;21.20;55.30
1175;DHT22;576;48.418;10.074;2023-01-19T02:14:07;21.20;55.30
1175;DHT22;576;48.418;10.074;2023-01-19T02:16:36;21.20;55.20
1175;DHT22;576;48.418;10.074;2023-01-19T02:19:06;21.20;55.20
1175;DHT22;576;48.418;10.074;2023-01-19T02:21:39;21.20;55.20
1175;DHT22;576;48.418;10.074;2023-01-19T02:24:11;21.20;55.20
1175;DHT22;576;48.418;10.074;2023-01-19T02:26:41;21.20;55.20
1175;DHT22;576;48.418;10.074;2023-01-19T02:29:12;21.20;55.20
1175;DHT22;576;48.418;10.074;2023-01-19T02:31:41;21.20;55.20
1175;DHT22;576;48.418;10.074;2023-01-19T02:34:13;21.20;55.10
1175;DHT22;576;48.418;10.074;2023-01-19T02:36:46;21.20;55.10
1175;DHT22;576;48.418;10.074;2023-01-19T02:39:19;21.20;55.10
1175;DHT22;576;48.418;10.074;2023-01-19T02:41:52;21.20;55.10
1175;DHT22;576;48.418;10.074;2023-01-19T02:44:22;21.20;55.00
1175;DHT22;576;48.418;10.074;2023-01-19T02:46:53;21.20;55.00
1175;DHT22;576;48.418;10.074;2023-01-19T02:49:21;21.20;55.00
1175;DHT22;576;48.418;10.074;2023-01-19T02:51:49;21.20;55.00
1175;DHT22;576;48.418;10.074;2023-01-19T02:54:34;21.20;54.90
1175;DHT22;576;48.418;10.074;2023-01-19T02:57:16;21.20;55.00
1175;DHT22;576;48.418;10.074;2023-01-19T03:00:01;21.20;55.00
1175;DHT22;576;48.418;10.074;2023-01-19T03:02:37;21.20;54.90
1175;DHT22;576;48.418;10.074;2023-01-19T03:05:25;21.20;54.90
1175;DHT22;576;48.418;10.074;2023-01-19T03:08:06;21.20;54.90
1175;DHT22;576;48.418;10.074;2023-01-19T03:10:42;21.20;54.90
1175;DHT22;576;48.418;10.074;2023-01-19T03:13:16;21.20;54.90
1175;DHT22;576;48.418;10.074;2023-01-19T03:15:51;21.20;54.90
1175;DHT22;576;48.418;10.074;2023-01-19T03:18:24;21.20;54.90
1175;DHT22;576;48.418;10.074;2023-01-19T03:20:56;21.20;54.90
1175;DHT22;576;48.418;10.074;2023-01-19T03:23:28;21.20;54.90
1175;DHT22;576;48.418;10.074;2023-01-19T03:25:59;21.20;54.90
1175;DHT22;576;48.418;10.074;2023-01-19T03:28:29;21.20;54.90
1175;DHT22;576;48.418;10.074;2023-01-19T03:31:00;21.20;54.90
1175;DHT22;576;48.418;10.074;2023-01-19T03:33:32;21.20;54.80
1175;DHT22;576;48.418;10.074;2023-01-19T03:36:05;21.20;54.80
1175;DHT22;576;48.418;10.074;2023-01-19T03:38:36;21.20;54.80
1175;DHT22;576;48.418;10.074;2023-01-19T03:41:09;21.20;54.80
1175;DHT22;576;48.418;10.074;2023-01-19T03:43:42;21.20;54.80
1175;DHT22;576;48.418;10.074;2023-01-19T03:46:11;21.20;54.80
1175;DHT22;576;48.418;10.074;2023-01-19T03:48:44;21.20;54.70
1175;DHT22;576;48.418;10.074;2023-01-19T03:51:12;21.20;54.70
1175;DHT22;576;48.418;10.074;2023-01-19T03:53:41;21.20;54.70
1175;DHT22;576;48.418;10.074;2023-01-19T03:56:16;21.20;54.70
1175;DHT22;576;48.418;10.074;2023-01-19T03:58:44;21.20;54.70
1175;DHT22;576;48.418;10.074;2023-01-19T04:01:13;21.20;54.60
1175;DHT22;576;48.418;10.074;2023-01-19T04:03:42;21.20;54.60
1175;DHT22;576;48.418;10.074;2023-01-19T04:06:10;21.20;54.60
1175;DHT22;576;48.418;10.074;2023-01-19T04:08:39;21.20;54.50
1175;DHT22;576;48.418;10.074;2023-01-19T04:11:07;21.20;54.50
1175;DHT22;576;48.418;10.074;2023-01-19T04:13:37;21.20;54.50
1175;DHT22;576;48.418;10.074;2023-01-19T04:16:06;21.20;54.40
1175;DHT22;576;48.418;10.074;2023-01-19T04:18:34;21.20;54.40
1175;DHT22;576;48.418;10.074;2023-01-19T04:21:04;21.20;54.40
1175;DHT22;576;48.418;10.074;2023-01-19T04:23:33;21.20;54.40
1175;DHT22;576;48.418;10.074;2023-01-19T04:26:03;21.20;54.30
1175;DHT22;576;48.418;10.074;2023-01-19T04:28:32;21.20;54.40
1175;DHT22;576;48.418;10.074;2023-01-19T04:31:02;21.20;54.30
1175;DHT22;576;48.418;10.074;2023-01-19T04:33:31;21.20;54.30
1175;DHT22;576;48.418;10.074;2023-01-19T04:36:00;21.20;54.30
1175;DHT22;576;48.418;10.074;2023-01-19T04:38:30;21.20;54.30
1175;DHT22;576;48.418;10.074;2023-01-19T04:40:58;21.20;54.30
1175;DHT22;576;48.418;10.074;2023-01-19T04:43:26;21.20;54.30
1175;DHT22;576;48.418;10.074;2023-01-19T04:45:54;21.20;54.30
1175;DHT22;576;48.418;10.074;2023-01-19T04:48:23;21.20;54.30
1175;DHT22;576;48.418;10.074;2023-01-19T04:50:52;21.20;54.30
1175;DHT22;576;48.418;10.074;2023-01-19T04:53:20;21.20;54.30
1175;DHT22;576;48.418;10.074;2023-01-19T04:55:51;21.20;54.30
1175;DHT22;576;48.418;10.074;2023-01-19T04:58:20;21.20;54.30
1175;DHT22;576;48.418;10.074;2023-01-19T05:00:48;21.20;54.30
1175;DHT22;576;48.418;10.074;2023-01-19T05:03:18;21.20;54.30
1175;DHT22;576;48.418;10.074;2023-01-19T05:05:48;21.20;54.30
1175;DHT22;576;48.418;10.074;2023-01-19T05:08:16;21.20;54.30
1175;DHT22;576;48.418;10.074;2023-01-19T05:10:44;21.20;54.30
1175;DHT22;576;48.418;10.074;2023-01-19T05:13:12;21.10;54.30
1175;DHT22;576;48.418;10.074;2023-01-19T05:15:40;21.20;54.30
1175;DHT22;576;48.418;10.074;2023-01-19T05:18:09;21.20;54.20
1175;DHT22;576;48.418;10.074;2023-01-19T05:20:37;21.20;54.20
1175;DHT22;576;48.418;10.074;2023-01-19T05:23:08;21.10;54.10
1175;DHT22;576;48.418;10.074;2023-01-19T05:25:36;21.20;54.10
1175;DHT22;576;48.418;10.074;2023-01-19T05:28:04;21.10;54.10
1175;DHT22;576;48.418;10.074;2023-01-19T05:30:40;21.20;54.00
1175;DHT22;576;48.418;10.074;2023-01-19T05:33:09;21.10;54.00
1175;DHT22;576;48.418;10.074;2023-01-19T05:35:37;21.10;54.10
1175;DHT22;576;48.418;10.074;2023-01-19T05:38:05;21.10;54.10
1175;DHT22;576;48.418;10.074;2023-01-19T05:40:34;21.10;54.10
1175;DHT22;576;48.418;10.074;2023-01-19T05:43:03;21.10;54.10
1175;DHT22;576;48.418;10.074;2023-01-19T05:45:31;21.10;54.10
1175;DHT22;576;48.418;10.074;2023-01-19T05:48:00;21.10;54.10
1175;DHT22;576;48.418;10.074;2023-01-19T05:50:28;21.10;54.20
1175;DHT22;576;48.418;10.074;2023-01-19T05:52:56;21.10;54.30
1175;DHT22;576;48.418;10.074;2023-01-19T05:55:26;21.10;54.40
1175;DHT22;576;48.418;10.074;2023-01-19T05:57:59;21.10;54.40
1175;DHT22;576;48.418;10.074;2023-01-19T06:00:27;21.10;54.50
1175;DHT22;576;48.418;10.074;2023-01-19T06:02:55;21.10;54.60
1175;DHT22;576;48.418;10.074;2023-01-19T06:05:23;21.10;54.60
1175;DHT22;576;48.418;10.074;2023-01-19T06:07:51;21.10;54.70
1175;DHT22;576;48.418;10.074;2023-01-19T06:10:22;21.10;54.70
1175;DHT22;576;48.418;10.074;2023-01-19T06:12:50;21.10;54.80
1175;DHT22;576;48.418;10.074;2023-01-19T06:15:20;21.10;54.90
1175;DHT22;576;48.418;10.074;2023-01-19T06:17:49;21.10;54.90
1175;DHT22;576;48.418;10.074;2023-01-19T06:20:17;21.10;55.00
1175;DHT22;576;48.418;10.074;2023-01-19T06:22:46;21.10;54.90
1175;DHT22;576;48.418;10.074;2023-01-19T06:25:14;21.10;55.00
1175;DHT22;576;48.418;10.074;2023-01-19T06:27:43;21.00;55.10
1175;DHT22;576;48.418;10.074;2023-01-19T06:30:12;21.00;55.20
1175;DHT22;576;48.418;10.074;2023-01-19T06:32:41;21.00;55.20
1175;DHT22;576;48.418;10.074;2023-01-19T06:35:10;21.00;55.30
1175;DHT22;576;48.418;10.074;2023-01-19T06:37:38;21.00;55.40
1175;DHT22;576;48.418;10.074;2023-01-19T06:40:08;21.00;55.50
1175;DHT22;576;48.418;10.074;2023-01-19T06:42:37;21.00;55.50
1175;DHT22;576;48.418;10.074;2023-01-19T06:45:06;21.00;55.60
1175;DHT22;576;48.418;10.074;2023-01-19T06:47:36;21.00;55.60
1175;DHT22;576;48.418;10.074;2023-01-19T06:50:06;21.00;55.50
1175;DHT22;576;48.418;10.074;2023-01-19T06:52:34;21.00;55.50
1175;DHT22;576;48.418;10.074;2023-01-19T06:55:08;21.00;55.30
1175;DHT22;576;48.418;10.074;2023-01-19T06:57:37;21.00;55.50
1175;DHT22;576;48.418;10.074;2023-01-19T07:00:06;21.00;55.30
1175;DHT22;576;48.418;10.074;2023-01-19T07:02:35;21.00;55.60
1175;DHT22;576;48.418;10.074;2023-01-19T07:05:04;21.00;55.70
1175;DHT22;576;48.418;10.074;2023-01-19T07:07:34;21.00;56.00
1175;DHT22;576;48.418;10.074;2023-01-19T07:10:03;21.00;56.60
1175;DHT22;576;48.418;10.074;2023-01-19T07:12:32;21.00;56.90
1175;DHT22;576;48.418;10.074;2023-01-19T07:15:01;21.00;57.00
1175;DHT22;576;48.418;10.074;2023-01-19T07:17:29;21.00;56.90
1175;DHT22;576;48.418;10.074;2023-01-19T07:19:57;21.00;56.80
1175;DHT22;576;48.418;10.074;2023-01-19T07:22:25;21.00;56.70
1175;DHT22;576;48.418;10.074;2023-01-19T07:24:55;21.00;56.70
1175;DHT22;576;48.418;10.074;2023-01-19T07:27:24;21.00;56.60
1175;DHT22;576;48.418;10.074;2023-01-19T07:29:53;21.00;56.50
1175;DHT22;576;48.418;10.074;2023-01-19T07:32:22;20.90;56.60
1175;DHT22;576;48.418;10.074;2023-01-19T07:34:50;20.90;56.50
1175;DHT22;576;48.418;10.074;2023-01-19T07:37:18;20.90;56.50
1175;DHT22;576;48.418;10.074;2023-01-19T07:39:46;20.90;55.80
1175;DHT22;576;48.418;10.074;2023-01-19T07:42:16;20.90;55.50
1175;DHT22;576;48.418;10.074;2023-01-19T07:44:44;20.90;56.40
1175;DHT22;576;48.418;10.074;2023-01-19T07:47:13;20.90;56.20
1175;DHT22;576;48.418;10.074;2023-01-19T07:49:41;20.90;56.40
1175;DHT22;576;48.418;10.074;2023-01-19T07:52:09;20.90;56.40
1175;DHT22;576;48.418;10.074;2023-01-19T07:54:37;20.90;56.40
1175;DHT22;576;48.418;10.074;2023-01-19T07:57:05;20.90;56.50
1175;DHT22;576;48.418;10.074;2023-01-19T07:59:35;20.90;56.70
1175;DHT22;576;48.418;10.074;2023-01-19T08:02:04;20.90;56.70
1175;DHT22;576;48.418;10.074;2023-01-19T08:04:33;21.00;56.40
1175;DHT22;576;48.418;10.074;2023-01-19T08:07:02;21.00;56.00
1175;DHT22;576;48.418;10.074;2023-01-19T08:09:30;21.00;55.50
1175;DHT22;576;48.418;10.074;2023-01-19T08:11:58;21.00;54.20
1175;DHT22;576;48.418;10.074;2023-01-19T08:14:26;21.00;54.50
1175;DHT22;576;48.418;10.074;2023-01-19T08:16:59;21.00;55.20
1175;DHT22;576;48.418;10.074;2023-01-19T08:19:28;21.00;54.70
1175;DHT22;576;48.418;10.074;2023-01-19T08:21:56;20.90;55.60
1175;DHT22;576;48.418;10.074;2023-01-19T08:24:25;20.90;53.70
1175;DHT22;576;48.418;10.074;2023-01-19T08:26:58;20.90;54.60
1175;DHT22;576;48.418;10.074;2023-01-19T08:29:27;20.90;54.60
1175;DHT22;576;48.418;10.074;2023-01-19T08:31:56;20.90;53.50
1175;DHT22;576;48.418;10.074;2023-01-19T08:34:28;20.80;53.50
1175;DHT22;576;48.418;10.074;2023-01-19T08:36:57;20.80;54.70
1175;DHT22;576;48.418;10.074;2023-01-19T08:39:26;20.80;54.40
1175;DHT22;576;48.418;10.074;2023-01-19T08:41:54;20.80;54.60
1175;DHT22;576;48.418;10.074;2023-01-19T08:44:24;20.90;54.70
1175;DHT22;576;48.418;10.074;2023-01-19T08:46:52;20.90;54.20
1175;DHT22;576;48.418;10.074;2023-01-19T08:49:20;20.90;54.50
1175;DHT22;576;48.418;10.074;2023-01-19T08:51:50;20.90;54.00
1175;DHT22;576;48.418;10.074;2023-01-19T08:54:18;20.90;53.70
1175;DHT22;576;48.418;10.074;2023-01-19T08:56:47;20.90;54.50
1175;DHT22;576;48.418;10.074;2023-01-19T08:59:15;20.90;53.20
1175;DHT22;576;48.418;10.074;2023-01-19T09:01:44;20.90;53.20
1175;DHT22;576;48.418;10.074;2023-01-19T09:04:12;20.90;53.70
1175;DHT22;576;48.418;10.074;2023-01-19T09:06:40;20.90;54.70
1175;DHT22;576;48.418;10.074;2023-01-19T09:09:09;20.90;54.40
1175;DHT22;576;48.418;10.074;2023-01-19T09:11:38;20.90;53.70
1175;DHT22;576;48.418;10.074;2023-01-19T09:14:06;20.90;53.20
1175;DHT22;576;48.418;10.074;2023-01-19T09:16:34;20.90;53.90
1175;DHT22;576;48.418;10.074;2023-01-19T09:19:02;20.90;54.20
1175;DHT22;576;48.418;10.074;2023-01-19T09:21:30;21.00;54.20
1175;DHT22;576;48.418;10.074;2023-01-19T09:23:58;21.00;54.50
1175;DHT22;576;48.418;10.074;2023-01-19T09:26:28;21.00;53.70
1175;DHT22;576;48.418;10.074;2023-01-19T09:28:59;21.00;53.30
1175;DHT22;576;48.418;10.074;2023-01-19T09:31:27;21.00;53.30
1175;DHT22;576;48.418;10.074;2023-01-19T09:33:55;20.90;53.20
1175;DHT22;576;48.418;10.074;2023-01-19T09:36:24;20.90;53.50
1175;DHT22;576;48.418;10.074;2023-01-19T09:38:52;20.90;54.00
1175;DHT22;576;48.418;10.074;2023-01-19T09:41:21;20.90;54.60
1175;DHT22;576;48.418;10.074;2023-01-19T09:43:54;20.90;54.90
1175;DHT22;576;48.418;10.074;2023-01-19T09:46:28;21.00;54.70
1175;DHT22;576;48.418;10.074;2023-01-19T09:49:01;21.00;55.00
1175;DHT22;576;48.418;10.074;2023-01-19T09:51:35;21.00;55.10
1175;DHT22;576;48.418;10.074;2023-01-19T09:54:10;21.00;54.40
1175;DHT22;576;48.418;10.074;2023-01-19T09:56:40;21.10;55.30
1175;DHT22;576;48.418;10.074;2023-01-19T09:59:18;21.10;55.40
1175;DHT22;576;48.418;10.074;2023-01-19T10:02:00;21.20;55.00
1175;DHT22;576;48.418;10.074;2023-01-19T10:04:33;21.30;55.40
1175;DHT22;576;48.418;10.074;2023-01-19T10:07:11;21.40;55.00
1175;DHT22;576;48.418;10.074;2023-01-19T10:09:50;21.40;54.60
1175;DHT22;576;48.418;10.074;2023-01-19T10:12:34;21.50;55.00
1175;DHT22;576;48.418;10.074;2023-01-19T10:15:18;21.60;54.20
1175;DHT22;576;48.418;10.074;2023-01-19T10:17:55;21.60;55.00
1175;DHT22;576;48.418;10.074;2023-01-19T10:20:32;21.70;55.10
1175;DHT22;576;48.418;10.074;2023-01-19T10:23:12;21.70;54.90
1175;DHT22;576;48.418;10.074;2023-01-19T10:25:44;21.80;54.90
1175;DHT22;576;48.418;10.074;2023-01-19T10:28:14;21.80;55.00
1175;DHT22;576;48.418;10.074;2023-01-19T10:30:45;21.80;54.70
1175;DHT22;576;48.418;10.074;2023-01-19T10:33:14;21.90;55.00
1175;DHT22;576;48.418;10.074;2023-01-19T10:35:42;21.90;55.10
1175;DHT22;576;48.418;10.074;2023-01-19T10:38:12;21.90;54.50
1175;DHT22;576;48.418;10.074;2023-01-19T10:40:49;22.00;54.50
1175;DHT22;576;48.418;10.074;2023-01-19T10:43:36;22.00;55.20
1175;DHT22;576;48.418;10.074;2023-01-19T10:46:07;22.00;54.80
1175;DHT22;576;48.418;10.074;2023-01-19T10:48:41;22.10;55.20
1175;DHT22;576;48.418;10.074;2023-01-19T10:51:11;22.10;55.10
1175;DHT22;576;48.418;10.074;2023-01-19T10:53:40;22.10;54.40
1175;DHT22;576;48.418;10.074;2023-01-19T10:56:15;22.10;54.10
1175;DHT22;576;48.418;10.074;2023-01-19T10:58:44;22.10;54.50
1175;DHT22;576;48.418;10.074;2023-01-19T11:01:16;22.10;54.20
1175;DHT22;576;48.418;10.074;2023-01-19T11:03:45;22.10;54.00
1175;DHT22;576;48.418;10.074;2023-01-19T11:06:25;22.10;55.00
1175;DHT22;576;48.418;10.074;2023-01-19T11:09:09;22.20;55.10
1175;DHT22;576;48.418;10.074;2023-01-19T11:11:43;22.30;55.10
1175;DHT22;576;48.418;10.074;2023-01-19T11:14:13;22.30;53.80
1175;DHT22;576;48.418;10.074;2023-01-19T11:16:47;22.20;53.50
1175;DHT22;576;48.418;10.074;2023-01-19T11:19:19;22.20;53.50
1175;DHT22;576;48.418;10.074;2023-01-19T11:21:48;22.20;54.60
1175;DHT22;576;48.418;10.074;2023-01-19T11:24:17;22.20;54.80
1175;DHT22;576;48.418;10.074;2023-01-19T11:26:47;22.20;55.00
1175;DHT22;576;48.418;10.074;2023-01-19T11:29:19;22.30;55.10
1175;DHT22;576;48.418;10.074;2023-01-19T11:31:53;22.30;54.90
1175;DHT22;576;48.418;10.074;2023-01-19T11:34:26;22.40;54.40
1175;DHT22;576;48.418;10.074;2023-01-19T11:36:58;22.50;54.50
1175;DHT22;576;48.418;10.074;2023-01-19T11:39:28;22.60;54.40
1175;DHT22;576;48.418;10.074;2023-01-19T11:41:59;22.80;54.20
1175;DHT22;576;48.418;10.074;2023-01-19T11:44:29;22.90;53.90
1175;DHT22;576;48.418;10.074;2023-01-19T11:47:03;23.00;53.30
1175;DHT22;576;48.418;10.074;2023-01-19T11:49:39;23.10;53.40
1175;DHT22;576;48.418;10.074;2023-01-19T11:52:15;23.20;52.80
1175;DHT22;576;48.418;10.074;2023-01-19T11:54:53;23.30;52.60
1175;DHT22;576;48.418;10.074;2023-01-19T11:57:22;23.40;53.00
1175;DHT22;576;48.418;10.074;2023-01-19T11:59:51;23.50;52.30
1175;DHT22;576;48.418;10.074;2023-01-19T12:02:25;23.60;52.30
1175;DHT22;576;48.418;10.074;2023-01-19T12:04:58;23.60;51.30
1175;DHT22;576;48.418;10.074;2023-01-19T12:07:29;23.70;51.20
1175;DHT22;576;48.418;10.074;2023-01-19T12:10:05;23.70;50.60
1175;DHT22;576;48.418;10.074;2023-01-19T12:12:35;23.70;50.40
1175;DHT22;576;48.418;10.074;2023-01-19T12:15:10;23.70;50.10
1175;DHT22;576;48.418;10.074;2023-01-19T12:17:48;23.70;49.80
1175;DHT22;576;48.418;10.074;2023-01-19T12:20:29;23.80;49.60
1175;DHT22;576;48.418;10.074;2023-01-19T12:23:06;23.70;50.10
1175;DHT22;576;48.418;10.074;2023-01-19T12:25:45;23.70;50.60
1175;DHT22;576;48.418;10.074;2023-01-19T12:28:17;23.60;51.20
1175;DHT22;576;48.418;10.074;2023-01-19T12:30:45;23.50;50.70
1175;DHT22;576;48.418;10.074;2023-01-19T12:33:34;23.40;50.80
1175;DHT22;576;48.418;10.074;2023-01-19T12:36:08;23.30;51.40
1175;DHT22;576;48.418;10.074;2023-01-19T12:38:46;23.20;51.40
1175;DHT22;576;48.418;10.074;2023-01-19T12:41:22;23.10;51.60
1175;DHT22;576;48.418;10.074;2023-01-19T12:44:19;23.00;51.50
1175;DHT22;576;48.418;10.074;2023-01-19T12:46:51;22.80;52.00
1175;DHT22;576;48.418;10.074;2023-01-19T12:49:24;22.70;51.70
1175;DHT22;576;48.418;10.074;2023-01-19T12:52:10;22.60;51.40
1175;DHT22;576;48.418;10.074;2023-01-19T12:54:48;22.50;52.20
1175;DHT22;576;48.418;10.074;2023-01-19T12:57:20;22.40;51.20
1175;DHT22;576;48.418;10.074;2023-01-19T12:59:55;22.30;51.70
1175;DHT22;576;48.418;10.074;2023-01-19T13:02:42;22.30;51.90
1175;DHT22;576;48.418;10.074;2023-01-19T13:05:17;22.20;52.00
1175;DHT22;576;48.418;10.074;2023-01-19T13:08:17;22.20;53.00
1175;DHT22;576;48.418;10.074;2023-01-19T13:11:14;22.20;52.60
1175;DHT22;576;48.418;10.074;2023-01-19T13:13:46;22.10;52.10
1175;DHT22;576;48.418;10.074;2023-01-19T13:16:54;22.10;52.20
1175;DHT22;576;48.418;10.074;2023-01-19T13:19:41;22.00;52.10
1175;DHT22;576;48.418;10.074;2023-01-19T13:25:28;22.00;53.10
1175;DHT22;576;48.418;10.074;2023-01-19T13:27:57;21.90;52.40
1175;DHT22;576;48.418;10.074;2023-01-19T13:30:27;21.90;53.30
1175;DHT22;576;48.418;10.074;2023-01-19T13:33:00;21.90;53.70
1175;DHT22;576;48.418;10.074;2023-01-19T13:35:34;22.00;53.90
1175;DHT22;576;48.418;10.074;2023-01-19T13:38:03;22.00;54.10
1175;DHT22;576;48.418;10.074;2023-01-19T13:40:37;22.10;54.20
1175;DHT22;576;48.418;10.074;2023-01-19T13:43:14;22.10;54.30
1175;DHT22;576;48.418;10.074;2023-01-19T13:45:46;22.20;54.30
1175;DHT22;576;48.418;10.074;2023-01-19T13:48:21;22.20;54.30
1175;DHT22;576;48.418;10.074;2023-01-19T13:50:58;22.30;54.50
1175;DHT22;576;48.418;10.074;2023-01-19T13:53:27;22.30;54.30
1175;DHT22;576;48.418;10.074;2023-01-19T13:56:15;22.40;54.50
1175;DHT22;576;48.418;10.074;2023-01-19T13:59:04;22.40;54.00
1175;DHT22;576;48.418;10.074;2023-01-19T14:01:38;22.40;53.70
1175;DHT22;576;48.418;10.074;2023-01-19T14:04:25;22.40;52.70
1175;DHT22;576;48.418;10.074;2023-01-19T14:06:55;22.40;53.40
1175;DHT22;576;48.418;10.074;2023-01-19T14:09:24;22.40;53.90
1175;DHT22;576;48.418;10.074;2023-01-19T14:12:13;22.40;54.20
1175;DHT22;576;48.418;10.074;2023-01-19T14:14:44;22.40;54.30
1175;DHT22;576;48.418;10.074;2023-01-19T14:17:21;22.50;54.30
1175;DHT22;576;48.418;10.074;2023-01-19T14:19:50;22.50;54.30
1175;DHT22;576;48.418;10.074;2023-01-19T14:22:19;22.50;54.60
1175;DHT22;576;48.418;10.074;2023-01-19T14:24:47;22.50;54.70
1175;DHT22;576;48.418;10.074;2023-01-19T14:27:19;22.60;54.60
1175;DHT22;576;48.418;10.074;2023-01-19T14:29:50;22.60;54.80
1175;DHT22;576;48.418;10.074;2023-01-19T14:32:21;22.60;54.70
1175;DHT22;576;48.418;10.074;2023-01-19T14:34:51;22.60;54.80
1175;DHT22;576;48.418;10.074;2023-01-19T14:37:22;22.70;54.80
1175;DHT22;576;48.418;10.074;2023-01-19T14:39:55;22.60;54.90
1175;DHT22;576;48.418;10.074;2023-01-19T14:42:28;22.60;54.10
1175;DHT22;576;48.418;10.074;2023-01-19T14:44:59;22.60;54.70
1175;DHT22;576;48.418;10.074;2023-01-19T14:47:34;22.60;55.20
1175;DHT22;576;48.418;10.074;2023-01-19T14:50:17;22.60;55.30
1175;DHT22;576;48.418;10.074;2023-01-19T14:52:50;22.60;55.30
1175;DHT22;576;48.418;10.074;2023-01-19T14:55:21;22.60;54.50
1175;DHT22;576;48.418;10.074;2023-01-19T14:57:52;22.60;55.30
1175;DHT22;576;48.418;10.074;2023-01-19T15:00:22;22.60;55.50
1175;DHT22;576;48.418;10.074;2023-01-19T15:02:50;22.60;55.50
1175;DHT22;576;48.418;10.074;2023-01-19T15:05:19;22.60;55.40
1175;DHT22;576;48.418;10.074;2023-01-19T15:07:47;22.60;55.40
1175;DHT22;576;48.418;10.074;2023-01-19T15:10:17;22.60;54.70
1175;DHT22;576;48.418;10.074;2023-01-19T15:12:47;22.50;55.40
1175;DHT22;576;48.418;10.074;2023-01-19T15:15:20;22.50;54.90
1175;DHT22;576;48.418;10.074;2023-01-19T15:17:52;22.50;55.80
1175;DHT22;576;48.418;10.074;2023-01-19T15:20:22;22.60;55.80
1175;DHT22;576;48.418;10.074;2023-01-19T15:22:50;22.60;55.60
1175;DHT22;576;48.418;10.074;2023-01-19T15:25:20;22.60;55.60
1175;DHT22;576;48.418;10.074;2023-01-19T15:27:48;22.70;55.60
1175;DHT22;576;48.418;10.074;2023-01-19T15:30:20;22.70;55.60
1175;DHT22;576;48.418;10.074;2023-01-19T15:32:50;22.70;55.60
1175;DHT22;576;48.418;10.074;2023-01-19T15:35:19;22.70;55.60
1175;DHT22;576;48.418;10.074;2023-01-19T15:37:48;22.70;55.60
1175;DHT22;576;48.418;10.074;2023-01-19T15:40:18;22.70;55.60
1175;DHT22;576;48.418;10.074;2023-01-19T15:42:49;22.70;55.60
1175;DHT22;576;48.418;10.074;2023-01-19T15:45:34;22.70;55.10
1175;DHT22;576;48.418;10.074;2023-01-19T15:48:04;22.60;55.40
1175;DHT22;576;48.418;10.074;2023-01-19T15:50:33;22.60;55.50
1175;DHT22;576;48.418;10.074;2023-01-19T15:53:02;22.60;55.10
1175;DHT22;576;48.418;10.074;2023-01-19T15:55:31;22.60;55.40
1175;DHT22;576;48.418;10.074;2023-01-19T15:57:59;22.50;55.20
1175;DHT22;576;48.418;10.074;2023-01-19T16:00:28;22.50;55.00
1175;DHT22;576;48.418;10.074;2023-01-19T16:03:02;22.40;55.10
1175;DHT22;576;48.418;10.074;2023-01-19T16:05:30;22.40;55.40
1175;DHT22;576;48.418;10.074;2023-01-19T16:08:09;22.40;55.80
1175;DHT22;576;48.418;10.074;2023-01-19T16:10:38;22.40;56.10
1175;DHT22;576;48.418;10.074;2023-01-19T16:13:07;22.40;56.20
1175;DHT22;576;48.418;10.074;2023-01-19T16:15:35;22.40;56.20
1175;DHT22;576;48.418;10.074;2023-01-19T16:18:05;22.40;55.50
1175;DHT22;576;48.418;10.074;2023-01-19T16:20:33;22.50;56.20
1175;DHT22;576;48.418;10.074;2023-01-19T16:23:02;22.50;55.60
1175;DHT22;576;48.418;10.074;2023-01-19T16:25:54;22.50;55.60
1175;DHT22;576;48.418;10.074;2023-01-19T16:28:23;22.50;56.00
1175;DHT22;576;48.418;10.074;2023-01-19T16:30:52;22.50;56.00
1175;DHT22;576;48.418;10.074;2023-01-19T16:33:22;22.50;55.60